createdAt,value
2023-05-19T00:02:09.096Z,99598.19
2023-05-19T00:04:36.979Z,99590.16
2023-05-19T00:07:05.524Z,99596.84
2023-05-19T00:09:32.584Z,99600.19
2023-05-19T00:11:59.482Z,99593.22
2023-05-19T00:14:26.498Z,99597.34
2023-05-19T00:16:55.893Z,99602.06
2023-05-19T00:19:24.404Z,99599.66
2023-05-19T00:21:51.095Z,99597.69
2023-05-19T00:24:17.760Z,99600.72
2023-05-19T00:26:44.442Z,99596.06
2023-05-19T00:29:11.044Z,99591.34
2023-05-19T00:31:37.756Z,99585.69
2023-05-19T00:34:04.436Z,99590.53
2023-05-19T00:36:31.097Z,99590.16
2023-05-19T00:38:57.756Z,99585.59
2023-05-19T00:41:24.614Z,99580.81
2023-05-19T00:43:51.310Z,99583.28
2023-05-19T00:46:19.593Z,99582.94
2023-05-19T00:48:46.336Z,99577.03
2023-05-19T00:51:16.608Z,99573.44
2023-05-19T00:53:48.361Z,99567.78
2023-05-19T00:56:19.307Z,99562.38
2023-05-19T00:58:46.412Z,99572.84
2023-05-19T01:01:14.366Z,99575.09
2023-05-19T01:03:43.150Z,99575.44
2023-05-19T01:06:10.100Z,99564.78
2023-05-19T01:08:38.419Z,99569.81
2023-05-19T01:11:07.269Z,99565.63
2023-05-19T01:13:35.662Z,99562.78
2023-05-19T01:16:32.680Z,99559.81
2023-05-19T01:19:27.820Z,99561.09
2023-05-19T01:22:14.661Z,99559.44
2023-05-19T01:25:04.926Z,99559.03
2023-05-19T01:28:07.022Z,99565.03
2023-05-19T01:30:45.522Z,99560.88
2023-05-19T01:33:15.237Z,99564.56
2023-05-19T01:35:44.129Z,99563.16
2023-05-19T01:38:13.111Z,99562.97
2023-05-19T01:40:41.916Z,99562.84
2023-05-19T01:43:12.520Z,99553.38
2023-05-19T01:45:40.736Z,99565.19
2023-05-19T01:48:10.845Z,99563.69
2023-05-19T01:50:38.216Z,99565.19
2023-05-19T01:53:05.128Z,99566.88
2023-05-19T01:55:31.916Z,99567.53
2023-05-19T01:58:35.560Z,99566.94
2023-05-19T02:01:40.039Z,99570.44
2023-05-19T02:04:28.078Z,99569.44
2023-05-19T02:07:32.388Z,99568.47
2023-05-19T02:10:05.626Z,99562.66
2023-05-19T02:12:37.905Z,99566.13
2023-05-19T02:15:17.889Z,99571.34
2023-05-19T02:17:48.285Z,99559.88
2023-05-19T02:20:18.841Z,99562.66
2023-05-19T02:22:45.970Z,99559.44
2023-05-19T02:25:12.623Z,99562.25
2023-05-19T02:27:39.829Z,99561.63
2023-05-19T02:30:08.281Z,99557.94
2023-05-19T02:32:36.304Z,99567.06
2023-05-19T02:35:03.877Z,99564.88
2023-05-19T02:37:30.972Z,99564.34
2023-05-19T02:39:57.749Z,99556.84
2023-05-19T02:42:24.424Z,99557.53
2023-05-19T02:44:51.479Z,99555.16
2023-05-19T02:47:18.117Z,99555.78
2023-05-19T02:49:44.952Z,99554.34
2023-05-19T02:52:12.205Z,99545.59
2023-05-19T02:54:38.867Z,99537.94
2023-05-19T02:57:05.618Z,99541.00
2023-05-19T02:59:32.363Z,99543.22
2023-05-19T03:02:02.994Z,99534.28
2023-05-19T03:04:30.105Z,99544.28
2023-05-19T03:07:00.005Z,99545.72
2023-05-19T03:09:26.822Z,99548.84
2023-05-19T03:11:53.436Z,99554.03
2023-05-19T03:14:23.632Z,99557.31
2023-05-19T03:16:50.412Z,99547.53
2023-05-19T03:19:18.109Z,99547.03
2023-05-19T03:21:44.775Z,99539.28
2023-05-19T03:24:11.414Z,99542.66
2023-05-19T03:26:38.059Z,99543.19
2023-05-19T03:29:04.718Z,99548.63
2023-05-19T03:31:31.334Z,99547.44
2023-05-19T03:33:57.980Z,99547.00
2023-05-19T03:36:24.699Z,99551.84
2023-05-19T03:38:51.298Z,99553.00
2023-05-19T03:41:17.900Z,99553.19
2023-05-19T03:43:44.471Z,99559.91
2023-05-19T03:46:11.185Z,99557.28
2023-05-19T03:48:37.853Z,99549.47
2023-05-19T03:51:04.566Z,99554.34
2023-05-19T03:53:31.247Z,99551.88
2023-05-19T03:55:57.887Z,99555.53
2023-05-19T03:58:24.833Z,99545.81
2023-05-19T04:00:51.462Z,99547.78
2023-05-19T04:03:18.295Z,99550.47
2023-05-19T04:05:45.089Z,99556.03
2023-05-19T04:08:11.720Z,99547.97
2023-05-19T04:10:38.386Z,99550.97
2023-05-19T04:13:05.235Z,99550.94
2023-05-19T04:15:32.019Z,99555.09
2023-05-19T04:17:58.725Z,99556.59
2023-05-19T04:20:25.561Z,99552.28
2023-05-19T04:22:52.182Z,99556.41
2023-05-19T04:25:20.037Z,99539.94
2023-05-19T04:27:48.184Z,99551.34
2023-05-19T04:30:21.934Z,99546.88
2023-05-19T04:32:52.043Z,99548.41
2023-05-19T04:35:19.301Z,99549.94
2023-05-19T04:37:48.353Z,99552.34
2023-05-19T04:40:15.802Z,99554.91
2023-05-19T04:42:42.983Z,99559.47
2023-05-19T04:45:12.153Z,99562.78
2023-05-19T04:47:38.822Z,99559.72
2023-05-19T04:50:06.861Z,99568.28
2023-05-19T04:52:34.069Z,99568.75
2023-05-19T04:55:01.081Z,99565.00
2023-05-19T04:57:28.552Z,99557.38
2023-05-19T04:59:59.888Z,99573.56
2023-05-19T05:02:27.917Z,99568.00
2023-05-19T05:04:56.558Z,99572.53
2023-05-19T05:07:23.921Z,99565.72
2023-05-19T05:09:50.858Z,99566.53
2023-05-19T05:12:18.947Z,99575.84
2023-05-19T05:14:46.102Z,99572.50
2023-05-19T05:17:13.677Z,99572.50
2023-05-19T05:19:40.960Z,99572.50
2023-05-19T05:22:08.265Z,99570.66
2023-05-19T05:24:35.457Z,99573.56
2023-05-19T05:27:02.105Z,99570.72
2023-05-19T05:29:28.738Z,99578.97
2023-05-19T05:31:55.339Z,99568.28
2023-05-19T05:34:22.014Z,99559.88
2023-05-19T05:36:48.640Z,99568.28
2023-05-19T05:39:15.319Z,99563.75
2023-05-19T05:41:41.935Z,99569.81
2023-05-19T05:44:08.574Z,99567.03
2023-05-19T05:46:35.310Z,99567.25
2023-05-19T05:49:02.379Z,99563.75
2023-05-19T05:51:29.434Z,99574.69
2023-05-19T05:53:57.459Z,99574.56
2023-05-19T05:56:24.537Z,99582.25
2023-05-19T05:58:51.902Z,99577.75
2023-05-19T06:01:20.838Z,99580.03
2023-05-19T06:03:47.544Z,99579.88
2023-05-19T06:06:14.273Z,99589.22
2023-05-19T06:08:41.038Z,99593.16
2023-05-19T06:11:10.862Z,99595.28
2023-05-19T06:13:38.859Z,99594.38
2023-05-19T06:16:06.131Z,99591.56
2023-05-19T06:18:33.072Z,99591.91
2023-05-19T06:20:59.779Z,99598.75
2023-05-19T06:23:28.905Z,99593.81
2023-05-19T06:25:56.288Z,99594.66
2023-05-19T06:28:23.008Z,99590.19
2023-05-19T06:30:49.902Z,99586.97
2023-05-19T06:33:16.609Z,99583.13
2023-05-19T06:35:43.246Z,99600.00
2023-05-19T06:38:10.070Z,99585.25
2023-05-19T06:40:36.967Z,99588.09
2023-05-19T06:43:04.713Z,99594.50
2023-05-19T06:45:31.833Z,99589.94
2023-05-19T06:47:58.995Z,99592.94
2023-05-19T06:50:25.805Z,99585.94
2023-05-19T06:52:52.811Z,99581.25
2023-05-19T06:55:19.743Z,99582.56
2023-05-19T06:57:46.420Z,99584.22
2023-05-19T07:00:16.790Z,99581.56
2023-05-19T07:02:45.104Z,99579.47
2023-05-19T07:05:11.872Z,99582.66
2023-05-19T07:07:38.540Z,99572.97
2023-05-19T07:10:05.961Z,99580.63
2023-05-19T07:12:32.582Z,99578.41
2023-05-19T07:14:59.276Z,99569.78
2023-05-19T07:17:26.031Z,99571.44
2023-05-19T07:19:56.065Z,99569.31
2023-05-19T07:22:24.032Z,99574.63
2023-05-19T07:24:51.023Z,99573.91
2023-05-19T07:27:17.721Z,99563.69
2023-05-19T07:29:44.435Z,99564.28
2023-05-19T07:32:11.111Z,99561.31
2023-05-19T07:34:37.878Z,99552.88
2023-05-19T07:37:04.741Z,99547.03
2023-05-19T07:39:32.243Z,99551.03
2023-05-19T07:41:59.205Z,99551.75
2023-05-19T07:44:27.042Z,99552.03
2023-05-19T07:46:54.519Z,99550.72
2023-05-19T07:49:21.167Z,99546.44
2023-05-19T07:51:48.035Z,99537.72
2023-05-19T07:54:14.823Z,99545.13
2023-05-19T07:56:41.551Z,99542.06
2023-05-19T07:59:08.272Z,99530.47
2023-05-19T08:01:34.984Z,99527.69
2023-05-19T08:04:02.106Z,99523.34
2023-05-19T08:06:30.083Z,99527.00
2023-05-19T08:08:56.770Z,99533.84
2023-05-19T08:11:23.500Z,99523.63
2023-05-19T08:13:50.809Z,99529.41
2023-05-19T08:16:18.015Z,99537.09
2023-05-19T08:18:44.737Z,99525.25
2023-05-19T08:21:11.679Z,99528.31
2023-05-19T08:23:38.648Z,99530.41
2023-05-19T08:26:05.640Z,99530.28
2023-05-19T08:28:32.405Z,99528.72
2023-05-19T08:30:59.140Z,99518.22
2023-05-19T08:33:25.934Z,99515.91
2023-05-19T08:35:52.781Z,99512.59
2023-05-19T08:38:19.420Z,99500.59
2023-05-19T08:40:48.289Z,99516.75
2023-05-19T08:43:15.360Z,99511.84
2023-05-19T08:45:48.164Z,99510.13
2023-05-19T08:48:18.672Z,99510.38
2023-05-19T08:50:58.826Z,99504.47
2023-05-19T08:53:36.843Z,99503.78
2023-05-19T08:56:24.736Z,99503.34
2023-05-19T08:58:52.201Z,99497.63
2023-05-19T09:01:20.338Z,99492.81
2023-05-19T09:03:49.457Z,99496.19
2023-05-19T09:06:16.339Z,99491.00
2023-05-19T09:08:44.027Z,99484.25
2023-05-19T09:11:11.355Z,99483.66
2023-05-19T09:13:38.447Z,99486.22
2023-05-19T09:16:05.718Z,99479.53
2023-05-19T09:18:32.390Z,99483.22
2023-05-19T09:21:02.399Z,99480.75
2023-05-19T09:23:33.795Z,99480.84
2023-05-19T09:26:07.008Z,99476.06
2023-05-19T09:28:36.212Z,99473.50
2023-05-19T09:31:08.100Z,99467.38
2023-05-19T09:33:37.058Z,99464.34
2023-05-19T09:36:08.510Z,99467.03
2023-05-19T09:38:36.823Z,99464.88
2023-05-19T09:41:05.562Z,99468.72
2023-05-19T09:43:34.108Z,99470.41
2023-05-19T09:46:04.245Z,99469.69
2023-05-19T09:48:30.978Z,99464.91
2023-05-19T09:50:58.720Z,99467.47
2023-05-19T09:53:25.571Z,99459.75
2023-05-19T09:55:59.238Z,99456.56
2023-05-19T09:58:26.992Z,99456.91
2023-05-19T10:00:56.748Z,99458.09
2023-05-19T10:03:26.630Z,99454.34
2023-05-19T10:05:53.744Z,99454.72
2023-05-19T10:08:21.422Z,99451.44
2023-05-19T10:10:48.342Z,99452.59
2023-05-19T10:13:16.593Z,99450.84
2023-05-19T10:15:57.183Z,99443.81
2023-05-19T10:18:27.589Z,99433.75
2023-05-19T10:20:54.831Z,99433.78
2023-05-19T10:23:22.231Z,99435.84
2023-05-19T10:25:51.429Z,99421.81
2023-05-19T10:28:21.234Z,99431.91
2023-05-19T10:30:50.841Z,99429.94
2023-05-19T10:33:19.676Z,99430.16
2023-05-19T10:36:39.569Z,99425.16
2023-05-19T10:39:14.228Z,99415.91
2023-05-19T10:42:19.542Z,99421.06
2023-05-19T10:44:48.885Z,99407.22
2023-05-19T10:47:26.161Z,99416.13
2023-05-19T10:49:54.290Z,99409.50
2023-05-19T10:52:22.932Z,99403.91
2023-05-19T10:54:49.705Z,99406.53
2023-05-19T10:57:18.041Z,99406.94
2023-05-19T10:59:45.398Z,99408.94
2023-05-19T11:02:42.946Z,99404.50
2023-05-19T11:05:16.529Z,99406.47
2023-05-19T11:07:44.644Z,99404.81
2023-05-19T11:10:12.103Z,99404.09
2023-05-19T11:12:45.844Z,99400.53
2023-05-19T11:15:15.657Z,99403.50
2023-05-19T11:17:46.160Z,99400.84
2023-05-19T11:20:30.602Z,99392.38
2023-05-19T11:23:07.798Z,99387.94
2023-05-19T11:25:48.861Z,99393.94
2023-05-19T11:28:19.160Z,99383.81
2023-05-19T11:30:51.770Z,99385.56
2023-05-19T11:33:20.736Z,99391.72
2023-05-19T11:35:50.278Z,99388.66
2023-05-19T11:38:21.103Z,99381.97
2023-05-19T11:40:52.194Z,99381.63
2023-05-19T11:43:19.086Z,99378.59
2023-05-19T11:45:46.625Z,99379.53
2023-05-19T11:48:15.471Z,99381.00
2023-05-19T11:50:43.855Z,99373.78
2023-05-19T11:53:14.399Z,99376.78
2023-05-19T11:55:47.153Z,99369.72
2023-05-19T11:58:15.004Z,99362.88
2023-05-19T12:00:45.807Z,99355.72
2023-05-19T12:03:13.234Z,99373.22
2023-05-19T12:05:45.500Z,99359.94
2023-05-19T12:08:12.788Z,99367.56
2023-05-19T12:10:40.462Z,99352.88
2023-05-19T12:13:09.278Z,99365.97
2023-05-19T12:15:36.630Z,99366.53
2023-05-19T12:18:04.076Z,99364.13
2023-05-19T12:20:37.671Z,99358.00
2023-05-19T12:23:04.918Z,99359.31
2023-05-19T12:25:32.172Z,99360.78
2023-05-19T12:28:05.511Z,99360.38
2023-05-19T12:30:34.308Z,99359.56
2023-05-19T12:33:02.930Z,99347.94
2023-05-19T12:35:33.409Z,99347.56
2023-05-19T12:38:09.188Z,99352.78
2023-05-19T12:40:38.530Z,99361.06
2023-05-19T12:43:06.555Z,99354.44
2023-05-19T12:45:38.175Z,99356.31
2023-05-19T12:48:06.668Z,99352.41
2023-05-19T12:50:34.401Z,99355.16
2023-05-19T12:53:01.902Z,99352.66
2023-05-19T12:55:28.762Z,99354.44
2023-05-19T12:57:57.862Z,99349.75
2023-05-19T13:00:28.031Z,99356.84
2023-05-19T13:03:05.839Z,99343.72
2023-05-19T13:05:37.690Z,99336.22
2023-05-19T13:08:13.738Z,99339.78
2023-05-19T13:10:42.850Z,99334.41
2023-05-19T13:13:10.300Z,99346.91
2023-05-19T13:15:44.339Z,99328.75
2023-05-19T13:18:12.680Z,99334.38
2023-05-19T13:20:41.515Z,99334.19
2023-05-19T13:23:11.073Z,99341.56
2023-05-19T13:25:38.027Z,99328.88
2023-05-19T13:28:05.753Z,99329.16
2023-05-19T13:30:37.859Z,99326.59
2023-05-19T13:33:05.407Z,99328.16
2023-05-19T13:35:38.800Z,99319.94
2023-05-19T13:38:07.724Z,99316.44
2023-05-19T13:40:34.866Z,99330.63
2023-05-19T13:43:03.213Z,99322.41
2023-05-19T13:45:30.000Z,99320.13
2023-05-19T13:47:56.896Z,99321.78
2023-05-19T13:50:23.652Z,99321.97
2023-05-19T13:52:55.305Z,99318.94
2023-05-19T13:55:23.036Z,99313.56
2023-05-19T13:57:49.680Z,99324.47
2023-05-19T14:00:18.119Z,99327.06
2023-05-19T14:02:45.118Z,99326.09
2023-05-19T14:05:11.916Z,99329.84
2023-05-19T14:07:38.656Z,99315.34
2023-05-19T14:10:06.767Z,99313.63
2023-05-19T14:12:44.902Z,99317.53
2023-05-19T14:15:19.906Z,99317.69
2023-05-19T14:17:47.008Z,99325.75
2023-05-19T14:20:13.761Z,99322.16
2023-05-19T14:22:40.624Z,99314.88
2023-05-19T14:25:08.067Z,99309.53
2023-05-19T14:27:34.730Z,99313.97
2023-05-19T14:30:01.377Z,99315.94
2023-05-19T14:32:30.248Z,99310.16
2023-05-19T14:34:59.250Z,99312.94
2023-05-19T14:37:28.762Z,99317.53
2023-05-19T14:39:57.656Z,99314.78
2023-05-19T14:42:24.960Z,99319.97
2023-05-19T14:44:51.643Z,99315.13
2023-05-19T14:47:18.250Z,99311.56
2023-05-19T14:49:44.877Z,99320.59
2023-05-19T14:52:11.536Z,99317.06
2023-05-19T14:54:38.207Z,99318.03
2023-05-19T14:57:07.097Z,99316.47
2023-05-19T14:59:37.747Z,99314.97
2023-05-19T15:02:05.289Z,99314.22
2023-05-19T15:04:32.328Z,99313.25
2023-05-19T15:09:32.380Z,99301.16
2023-05-19T15:12:00.994Z,99297.91
2023-05-19T15:14:27.991Z,99289.75
2023-05-19T15:16:56.750Z,99301.63
2023-05-19T15:19:23.490Z,99297.84
2023-05-19T15:21:50.562Z,99293.97
2023-05-19T15:24:19.091Z,99289.72
2023-05-19T15:26:46.950Z,99286.38
2023-05-19T15:29:13.617Z,99290.44
2023-05-19T15:31:40.693Z,99292.69
2023-05-19T15:34:07.473Z,99300.84
2023-05-19T15:36:34.100Z,99288.84
2023-05-19T15:39:00.752Z,99294.66
2023-05-19T15:41:27.361Z,99295.81
2023-05-19T15:43:53.974Z,99304.06
2023-05-19T15:46:20.771Z,99301.69
2023-05-19T15:48:47.505Z,99296.00
2023-05-19T15:51:14.273Z,99300.91
2023-05-19T15:53:40.941Z,99306.72
2023-05-19T15:56:07.628Z,99300.59
2023-05-19T15:58:34.257Z,99299.78
2023-05-19T16:01:01.142Z,99292.13
2023-05-19T16:03:27.904Z,99287.63
2023-05-19T16:05:54.635Z,99285.88
2023-05-19T16:08:21.308Z,99289.88
2023-05-19T16:10:48.157Z,99287.34
2023-05-19T16:13:14.953Z,99292.31
2023-05-19T16:15:41.769Z,99289.72
2023-05-19T16:18:08.421Z,99286.41
2023-05-19T16:20:35.271Z,99272.06
2023-05-19T16:23:03.060Z,99275.44
2023-05-19T16:25:30.014Z,99278.63
2023-05-19T16:28:00.163Z,99272.16
2023-05-19T16:30:27.909Z,99273.34
2023-05-19T16:32:54.696Z,99279.44
2023-05-19T16:35:21.851Z,99272.13
2023-05-19T16:37:48.968Z,99272.72
2023-05-19T16:40:15.708Z,99260.13
2023-05-19T16:42:42.319Z,99263.69
2023-05-19T16:45:09.789Z,99262.75
2023-05-19T16:47:36.683Z,99257.41
2023-05-19T16:50:04.103Z,99263.75
2023-05-19T16:52:30.835Z,99266.91
2023-05-19T16:54:57.453Z,99264.97
2023-05-19T16:57:24.155Z,99263.31
2023-05-19T16:59:50.843Z,99272.88
2023-05-19T17:02:17.688Z,99265.09
2023-05-19T17:04:44.373Z,99268.25
2023-05-19T17:07:15.527Z,99271.47
2023-05-19T17:09:48.509Z,99275.25
2023-05-19T17:12:15.177Z,99269.31
2023-05-19T17:14:43.365Z,99279.09
2023-05-19T17:17:10.148Z,99276.69
2023-05-19T17:19:36.855Z,99274.50
2023-05-19T17:22:03.769Z,99274.47
2023-05-19T17:24:33.013Z,99284.38
2023-05-19T17:27:00.498Z,99279.72
2023-05-19T17:29:27.840Z,99288.97
2023-05-19T17:31:54.939Z,99278.31
2023-05-19T17:34:21.665Z,99288.09
2023-05-19T17:36:49.540Z,99290.75
2023-05-19T17:39:16.524Z,99292.81
2023-05-19T17:41:43.301Z,99292.56
2023-05-19T17:44:09.929Z,99281.13
2023-05-19T17:46:38.687Z,99289.78
2023-05-19T17:49:06.180Z,99289.66
2023-05-19T17:51:33.094Z,99289.66
2023-05-19T17:54:00.209Z,99296.44
2023-05-19T17:56:29.027Z,99296.84
2023-05-19T17:58:56.047Z,99299.97
2023-05-19T18:01:25.552Z,99297.06
2023-05-19T18:03:52.764Z,99300.53
2023-05-19T18:06:20.308Z,99298.91
2023-05-19T18:08:50.302Z,99299.19
2023-05-19T18:11:21.220Z,99287.50
2023-05-19T18:13:47.868Z,99297.03
2023-05-19T18:16:15.070Z,99292.59
2023-05-19T18:18:43.477Z,99305.38
2023-05-19T18:21:17.490Z,99297.53
2023-05-19T18:23:45.386Z,99301.53
2023-05-19T18:26:15.708Z,99302.91
2023-05-19T18:28:43.252Z,99305.31
2023-05-19T18:31:15.408Z,99309.53
2023-05-19T18:33:42.938Z,99303.06
2023-05-19T18:36:09.886Z,99303.47
2023-05-19T18:38:36.504Z,99313.69
2023-05-19T18:41:03.305Z,99315.53
2023-05-19T18:43:32.254Z,99314.28
2023-05-19T18:45:59.002Z,99308.91
2023-05-19T18:48:25.761Z,99306.28
2023-05-19T18:50:52.509Z,99306.81
2023-05-19T18:53:21.444Z,99310.56
2023-05-19T18:55:48.228Z,99312.31
2023-05-19T18:58:14.891Z,99311.97
2023-05-19T19:00:41.533Z,99311.31
2023-05-19T19:03:10.241Z,99306.34
2023-05-19T19:05:37.346Z,99301.09
2023-05-19T19:08:05.544Z,99313.28
2023-05-19T19:10:34.678Z,99310.16
2023-05-19T19:13:01.608Z,99314.72
2023-05-19T19:15:32.354Z,99315.50
2023-05-19T19:17:59.071Z,99317.56
2023-05-19T19:20:25.770Z,99324.78
2023-05-19T19:22:53.335Z,99322.16
2023-05-19T19:25:21.300Z,99323.88
2023-05-19T19:27:49.875Z,99319.94
2023-05-19T19:30:16.557Z,99331.53
2023-05-19T19:32:43.273Z,99328.78
2023-05-19T19:35:10.077Z,99331.22
2023-05-19T19:37:36.916Z,99317.50
2023-05-19T19:40:03.996Z,99318.50
2023-05-19T19:42:31.666Z,99322.75
2023-05-19T19:44:58.523Z,99320.63
2023-05-19T19:47:26.378Z,99327.34
2023-05-19T19:49:53.037Z,99329.88
2023-05-19T19:52:19.701Z,99327.84
2023-05-19T19:54:46.473Z,99327.03
2023-05-19T19:57:16.723Z,99330.72
2023-05-19T19:59:43.640Z,99327.16
2023-05-19T20:02:10.396Z,99319.41
2023-05-19T20:04:37.180Z,99316.81
2023-05-19T20:07:04.045Z,99322.25
2023-05-19T20:09:31.604Z,99323.91
2023-05-19T20:11:58.324Z,99324.16
2023-05-19T20:14:25.354Z,99322.69
2023-05-19T20:16:52.005Z,99318.75
2023-05-19T20:19:18.758Z,99321.97
2023-05-19T20:21:45.619Z,99324.41
2023-05-19T20:24:12.323Z,99320.63
2023-05-19T20:26:38.938Z,99321.38
2023-05-19T20:29:05.564Z,99324.72
2023-05-19T20:31:32.187Z,99324.31
2023-05-19T20:34:00.788Z,99321.31
2023-05-19T20:36:28.213Z,99314.38
2023-05-19T20:38:54.890Z,99323.56
2023-05-19T20:41:22.407Z,99325.47
2023-05-19T20:43:49.070Z,99322.75
2023-05-19T20:46:16.053Z,99324.91
2023-05-19T20:48:42.788Z,99318.97
2023-05-19T20:51:09.393Z,99321.81
2023-05-19T20:53:36.500Z,99325.66
2023-05-19T20:56:05.080Z,99329.72
2023-05-19T20:58:31.966Z,99320.31
2023-05-19T21:00:58.795Z,99327.75
2023-05-19T21:03:26.824Z,99333.19
2023-05-19T21:05:54.682Z,99316.75
2023-05-19T21:08:21.353Z,99321.19
2023-05-19T21:10:48.487Z,99320.63
2023-05-19T21:13:15.407Z,99317.38
2023-05-19T21:15:42.027Z,99329.38
2023-05-19T21:18:08.753Z,99329.50
2023-05-19T21:20:35.681Z,99319.03
2023-05-19T21:23:02.426Z,99329.25
2023-05-19T21:25:29.226Z,99333.16
2023-05-19T21:27:55.941Z,99341.19
2023-05-19T21:30:23.470Z,99329.97
2023-05-19T21:32:50.294Z,99340.75
2023-05-19T21:35:17.097Z,99331.41
2023-05-19T21:37:43.739Z,99339.03
2023-05-19T21:40:12.360Z,99342.03
2023-05-19T21:42:40.240Z,99337.41
2023-05-19T21:45:07.607Z,99331.53
2023-05-19T21:47:34.310Z,99328.09
2023-05-19T21:50:01.010Z,99325.66
2023-05-19T21:52:27.662Z,99328.41
2023-05-19T21:54:55.980Z,99321.97
2023-05-19T21:57:22.607Z,99327.13
2023-05-19T21:59:49.808Z,99321.63
2023-05-19T22:02:16.919Z,99329.00
2023-05-19T22:04:44.653Z,99324.00
2023-05-19T22:07:11.261Z,99319.84
2023-05-19T22:09:38.022Z,99327.91
2023-05-19T22:12:05.200Z,99329.28
2023-05-19T22:14:31.825Z,99326.97
2023-05-19T22:16:58.467Z,99321.34
2023-05-19T22:19:25.111Z,99327.44
2023-05-19T22:22:01.588Z,99325.06
2023-05-19T22:24:32.919Z,99329.63
2023-05-19T22:26:59.540Z,99320.09
2023-05-19T22:29:26.176Z,99323.16
2023-05-19T22:31:52.802Z,99318.97
2023-05-19T22:34:19.519Z,99319.75
2023-05-19T22:36:46.451Z,99322.75
2023-05-19T22:39:14.019Z,99318.06
2023-05-19T22:41:40.981Z,99313.41
2023-05-19T22:44:10.133Z,99313.56
2023-05-19T22:46:37.086Z,99311.22
2023-05-19T22:49:06.754Z,99318.69
2023-05-19T22:51:33.454Z,99310.41
2023-05-19T22:54:00.186Z,99315.06
2023-05-19T22:56:26.909Z,99311.22
2023-05-19T22:58:53.570Z,99303.94
2023-05-19T23:01:20.524Z,99301.66
2023-05-19T23:03:47.328Z,99303.94
2023-05-19T23:06:13.940Z,99311.75
2023-05-19T23:08:40.632Z,99305.53
2023-05-19T23:11:07.709Z,99308.78
2023-05-19T23:13:34.357Z,99308.31
2023-05-19T23:16:00.956Z,99308.22
2023-05-19T23:18:28.831Z,99303.88
2023-05-19T23:20:55.628Z,99304.41
2023-05-19T23:23:22.266Z,99293.41
2023-05-19T23:25:49.116Z,99302.19
2023-05-19T23:28:16.631Z,99296.19
2023-05-19T23:30:43.308Z,99291.66
2023-05-19T23:33:09.936Z,99290.78
2023-05-19T23:35:36.711Z,99281.06
2023-05-19T23:38:03.407Z,99288.56
2023-05-19T23:40:30.231Z,99289.91
2023-05-19T23:42:56.848Z,99284.56
2023-05-19T23:45:23.461Z,99290.34
2023-05-19T23:47:50.168Z,99283.00
2023-05-19T23:50:19.904Z,99286.09
2023-05-19T23:52:48.000Z,99281.50
2023-05-19T23:55:15.043Z,99287.09
2023-05-19T23:57:42.372Z,99287.19
